createdAt,value
2022-11-29T00:05:56.767Z,958.53
2022-11-29T00:20:58.656Z,958.54
2022-11-29T00:36:00.722Z,958.69
2022-11-29T00:51:02.630Z,958.75
2022-11-29T01:06:04.588Z,958.83
2022-11-29T01:21:06.513Z,958.96
2022-11-29T01:36:08.440Z,959.17
2022-11-29T01:51:10.388Z,959.19
2022-11-29T02:06:12.399Z,959.3
2022-11-29T02:21:14.327Z,959.4
2022-11-29T02:36:16.245Z,959.47
2022-11-29T02:51:18.189Z,959.58
2022-11-29T03:06:20.188Z,959.62
2022-11-29T03:21:22.194Z,959.81
2022-11-29T03:36:24.099Z,959.92
2022-11-29T03:51:26.025Z,959.98
2022-11-29T04:06:27.996Z,960.1
2022-11-29T04:21:29.923Z,960.21
2022-11-29T04:36:31.813Z,960.31
2022-11-29T04:51:33.735Z,960.42
2022-11-29T05:06:35.653Z,960.59
2022-11-29T05:21:37.579Z,960.65
2022-11-29T05:36:39.495Z,960.84
2022-11-29T05:51:41.404Z,960.88
2022-11-29T06:06:43.296Z,961.08
2022-11-29T06:21:45.208Z,961.22
2022-11-29T06:36:47.247Z,961.4
2022-11-29T06:51:49.399Z,961.47
2022-11-29T07:06:51.325Z,961.61
2022-11-29T07:21:53.289Z,961.92
2022-11-29T07:36:55.175Z,962.06
2022-11-29T07:51:57.083Z,962.11
2022-11-29T08:06:58.958Z,962.26
2022-11-29T08:22:01.025Z,962.37
2022-11-29T08:37:02.985Z,962.54
2022-11-29T08:52:04.903Z,962.82
2022-11-29T09:07:06.812Z,963
2022-11-29T09:22:08.785Z,963.16
2022-11-29T09:37:10.759Z,963.37
2022-11-29T09:52:12.689Z,963.52
2022-11-29T10:07:14.643Z,963.84
2022-11-29T10:22:16.645Z,964.04
2022-11-29T10:37:18.531Z,964.28
2022-11-29T10:52:20.547Z,964.28
2022-11-29T11:07:22.510Z,964.33
2022-11-29T11:22:24.472Z,964.43
2022-11-29T11:37:26.416Z,964.66
2022-11-29T11:52:28.549Z,964.89
2022-11-29T12:07:59.698Z,965.05
2022-11-29T12:23:08.505Z,965.04
2022-11-29T12:38:10.414Z,965.13
2022-11-29T12:53:12.454Z,965.29
2022-11-29T13:08:14.351Z,965.53
2022-11-29T13:23:16.288Z,965.7
2022-11-29T13:38:18.208Z,965.5
2022-11-29T13:53:20.115Z,965.6
2022-11-29T14:08:22.062Z,965.67
2022-11-29T14:23:24.077Z,965.77
2022-11-29T14:38:30.686Z,965.86
2022-11-29T14:53:32.967Z,965.82
2022-11-29T15:08:34.904Z,966.02
2022-11-29T15:23:36.831Z,966.18
2022-11-29T15:38:38.703Z,966.36
2022-11-29T15:53:40.641Z,966.49
2022-11-29T16:08:42.640Z,966.64
2022-11-29T16:23:44.610Z,966.71
2022-11-29T16:38:46.493Z,966.83
2022-11-29T16:53:48.444Z,967.01
2022-11-29T17:08:50.441Z,966.96
2022-11-29T17:23:52.343Z,966.98
2022-11-29T17:38:54.300Z,967.19
2022-11-29T17:53:56.263Z,967.25
2022-11-29T18:08:58.276Z,967.22
2022-11-29T18:24:00.181Z,967.29
2022-11-29T18:39:02.107Z,967.36
2022-11-29T18:54:04.011Z,967.33
2022-11-29T19:09:05.937Z,967.27
2022-11-29T19:24:07.864Z,967.27
2022-11-29T19:39:09.821Z,967.29
2022-11-29T19:54:11.723Z,967.26
2022-11-29T20:09:13.611Z,967.27
2022-11-29T20:24:15.488Z,967.18
2022-11-29T20:39:17.397Z,967.06
2022-11-29T20:54:19.309Z,967.03
2022-11-29T21:09:21.241Z,966.86
2022-11-29T21:24:23.176Z,966.65
2022-11-29T21:39:25.120Z,966.62
2022-11-29T21:54:27.101Z,966.45
2022-11-29T22:09:29.054Z,966.34
2022-11-29T22:24:30.983Z,966.17
2022-11-29T22:39:32.846Z,966.15
2022-11-29T22:54:34.786Z,966.1
2022-11-29T23:09:36.864Z,966.23
2022-11-29T23:24:38.846Z,966.46
2022-11-29T23:39:40.806Z,966.65
2022-11-29T23:54:42.730Z,966.63
